sensor_id;sensor_type;location;lat;lon;timestamp;temperature;humidity
17208;DHT22;8720;48.488;9.202;2024-01-07T00:02:09;7.40;60.40
17208;DHT22;8720;48.488;9.202;2024-01-07T00:04:36;7.40;60.40
17208;DHT22;8720;48.488;9.202;2024-01-07T00:07:04;7.40;60.40
17208;DHT22;8720;48.488;9.202;2024-01-07T00:09:32;7.40;60.50
17208;DHT22;8720;48.488;9.202;2024-01-07T00:11:59;7.40;60.50
17208;DHT22;8720;48.488;9.202;2024-01-07T00:14:27;7.50;60.60
17208;DHT22;8720;48.488;9.202;2024-01-07T00:16:55;7.40;60.50
17208;DHT22;8720;48.488;9.202;2024-01-07T00:19:23;7.40;60.60
17208;DHT22;8720;48.488;9.202;2024-01-07T00:21:50;7.40;60.50
17208;DHT22;8720;48.488;9.202;2024-01-07T00:24:18;7.40;60.60
17208;DHT22;8720;48.488;9.202;2024-01-07T00:26:45;7.40;60.70
17208;DHT22;8720;48.488;9.202;2024-01-07T00:29:12;7.40;60.80
17208;DHT22;8720;48.488;9.202;2024-01-07T00:31:40;7.40;60.80
17208;DHT22;8720;48.488;9.202;2024-01-07T00:34:08;7.40;60.90
17208;DHT22;8720;48.488;9.202;2024-01-07T00:36:36;7.40;61.00
17208;DHT22;8720;48.488;9.202;2024-01-07T00:39:04;7.40;61.00
17208;DHT22;8720;48.488;9.202;2024-01-07T00:41:32;7.40;61.00
17208;DHT22;8720;48.488;9.202;2024-01-07T00:43:59;7.40;61.10
17208;DHT22;8720;48.488;9.202;2024-01-07T00:46:26;7.30;61.00
17208;DHT22;8720;48.488;9.202;2024-01-07T00:48:54;7.30;61.10
17208;DHT22;8720;48.488;9.202;2024-01-07T00:51:22;7.30;61.10
17208;DHT22;8720;48.488;9.202;2024-01-07T00:53:50;7.30;61.20
17208;DHT22;8720;48.488;9.202;2024-01-07T00:56:17;7.30;61.20
17208;DHT22;8720;48.488;9.202;2024-01-07T00:58:44;7.30;61.30
17208;DHT22;8720;48.488;9.202;2024-01-07T01:01:12;7.30;61.30
17208;DHT22;8720;48.488;9.202;2024-01-07T01:03:39;7.30;61.30
17208;DHT22;8720;48.488;9.202;2024-01-07T01:06:07;7.30;61.30
17208;DHT22;8720;48.488;9.202;2024-01-07T01:08:35;7.30;61.30
17208;DHT22;8720;48.488;9.202;2024-01-07T01:11:03;7.30;61.40
17208;DHT22;8720;48.488;9.202;2024-01-07T01:13:30;7.30;61.40
17208;DHT22;8720;48.488;9.202;2024-01-07T01:15:57;7.30;61.50
17208;DHT22;8720;48.488;9.202;2024-01-07T01:18:25;7.30;61.40
17208;DHT22;8720;48.488;9.202;2024-01-07T01:20:55;7.30;61.50
17208;DHT22;8720;48.488;9.202;2024-01-07T01:23:31;7.30;61.50
17208;DHT22;8720;48.488;9.202;2024-01-07T01:26:04;7.30;61.70
17208;DHT22;8720;48.488;9.202;2024-01-07T01:28:37;7.40;61.70
17208;DHT22;8720;48.488;9.202;2024-01-07T01:31:08;7.30;61.70
17208;DHT22;8720;48.488;9.202;2024-01-07T01:33:40;7.30;61.70
17208;DHT22;8720;48.488;9.202;2024-01-07T01:36:12;7.30;61.70
17208;DHT22;8720;48.488;9.202;2024-01-07T01:38:46;7.30;61.80
17208;DHT22;8720;48.488;9.202;2024-01-07T01:41:19;7.30;61.80
17208;DHT22;8720;48.488;9.202;2024-01-07T01:43:58;7.30;62.00
17208;DHT22;8720;48.488;9.202;2024-01-07T01:46:30;7.30;62.10
17208;DHT22;8720;48.488;9.202;2024-01-07T01:49:05;7.30;62.10
17208;DHT22;8720;48.488;9.202;2024-01-07T01:51:35;7.30;62.00
17208;DHT22;8720;48.488;9.202;2024-01-07T01:54:04;7.30;62.00
17208;DHT22;8720;48.488;9.202;2024-01-07T01:56:41;7.30;62.00
17208;DHT22;8720;48.488;9.202;2024-01-07T01:59:10;7.30;62.80
17208;DHT22;8720;48.488;9.202;2024-01-07T02:01:40;7.30;62.00
17208;DHT22;8720;48.488;9.202;2024-01-07T02:04:16;7.30;62.10
17208;DHT22;8720;48.488;9.202;2024-01-07T02:06:45;7.30;62.20
17208;DHT22;8720;48.488;9.202;2024-01-07T02:09:14;7.30;62.10
17208;DHT22;8720;48.488;9.202;2024-01-07T02:12:00;7.30;62.10
17208;DHT22;8720;48.488;9.202;2024-01-07T02:14:32;7.30;62.50
17208;DHT22;8720;48.488;9.202;2024-01-07T02:17:06;7.20;62.00
17208;DHT22;8720;48.488;9.202;2024-01-07T02:19:35;7.30;62.10
17208;DHT22;8720;48.488;9.202;2024-01-07T02:22:06;7.20;62.20
17208;DHT22;8720;48.488;9.202;2024-01-07T02:24:40;7.20;62.20
17208;DHT22;8720;48.488;9.202;2024-01-07T02:27:12;7.20;62.40
17208;DHT22;8720;48.488;9.202;2024-01-07T02:29:48;7.20;62.20
17208;DHT22;8720;48.488;9.202;2024-01-07T02:32:20;7.20;62.30
17208;DHT22;8720;48.488;9.202;2024-01-07T02:34:53;7.20;62.50
17208;DHT22;8720;48.488;9.202;2024-01-07T02:37:21;7.20;62.50
17208;DHT22;8720;48.488;9.202;2024-01-07T02:39:54;7.20;62.40
17208;DHT22;8720;48.488;9.202;2024-01-07T02:42:25;7.20;62.50
17208;DHT22;8720;48.488;9.202;2024-01-07T02:44:53;7.20;62.40
17208;DHT22;8720;48.488;9.202;2024-01-07T02:47:29;7.20;62.50
17208;DHT22;8720;48.488;9.202;2024-01-07T02:49:59;7.20;62.50
17208;DHT22;8720;48.488;9.202;2024-01-07T02:52:32;7.20;62.50
17208;DHT22;8720;48.488;9.202;2024-01-07T02:55:03;7.20;62.70
17208;DHT22;8720;48.488;9.202;2024-01-07T02:57:37;7.30;62.60
17208;DHT22;8720;48.488;9.202;2024-01-07T03:00:09;7.30;62.60
17208;DHT22;8720;48.488;9.202;2024-01-07T03:02:53;7.30;62.60
17208;DHT22;8720;48.488;9.202;2024-01-07T03:05:21;7.20;62.50
17208;DHT22;8720;48.488;9.202;2024-01-07T03:07:48;7.20;62.50
17208;DHT22;8720;48.488;9.202;2024-01-07T03:10:17;7.20;62.40
17208;DHT22;8720;48.488;9.202;2024-01-07T03:12:44;7.20;62.50
17208;DHT22;8720;48.488;9.202;2024-01-07T03:15:11;7.30;62.60
17208;DHT22;8720;48.488;9.202;2024-01-07T03:17:38;7.20;63.20
17208;DHT22;8720;48.488;9.202;2024-01-07T03:20:07;7.30;62.60
17208;DHT22;8720;48.488;9.202;2024-01-07T03:22:35;7.20;62.50
17208;DHT22;8720;48.488;9.202;2024-01-07T03:25:02;7.20;62.50
17208;DHT22;8720;48.488;9.202;2024-01-07T03:27:32;7.20;62.50
17208;DHT22;8720;48.488;9.202;2024-01-07T03:29:59;7.20;62.70
17208;DHT22;8720;48.488;9.202;2024-01-07T03:32:26;7.20;62.70
17208;DHT22;8720;48.488;9.202;2024-01-07T03:34:54;7.20;62.60
17208;DHT22;8720;48.488;9.202;2024-01-07T03:37:21;7.20;62.70
17208;DHT22;8720;48.488;9.202;2024-01-07T03:39:48;7.20;62.60
17208;DHT22;8720;48.488;9.202;2024-01-07T03:42:16;7.20;62.60
17208;DHT22;8720;48.488;9.202;2024-01-07T03:44:44;7.20;62.60
17208;DHT22;8720;48.488;9.202;2024-01-07T03:47:12;7.20;62.70
17208;DHT22;8720;48.488;9.202;2024-01-07T03:49:39;7.20;62.70
17208;DHT22;8720;48.488;9.202;2024-01-07T03:52:07;7.20;62.70
17208;DHT22;8720;48.488;9.202;2024-01-07T03:54:34;7.20;62.70
17208;DHT22;8720;48.488;9.202;2024-01-07T03:57:02;7.20;62.70
17208;DHT22;8720;48.488;9.202;2024-01-07T03:59:29;7.20;62.70
17208;DHT22;8720;48.488;9.202;2024-01-07T04:01:58;7.20;62.70
17208;DHT22;8720;48.488;9.202;2024-01-07T04:04:25;7.20;62.80
17208;DHT22;8720;48.488;9.202;2024-01-07T04:06:52;7.20;62.70
17208;DHT22;8720;48.488;9.202;2024-01-07T04:09:20;7.10;62.70
17208;DHT22;8720;48.488;9.202;2024-01-07T04:11:47;7.10;62.70
17208;DHT22;8720;48.488;9.202;2024-01-07T04:14:15;7.10;62.80
17208;DHT22;8720;48.488;9.202;2024-01-07T04:16:43;7.10;62.80
17208;DHT22;8720;48.488;9.202;2024-01-07T04:19:11;7.10;62.70
17208;DHT22;8720;48.488;9.202;2024-01-07T04:21:38;7.10;62.80
17208;DHT22;8720;48.488;9.202;2024-01-07T04:24:06;7.20;62.80
17208;DHT22;8720;48.488;9.202;2024-01-07T04:26:33;7.10;62.70
17208;DHT22;8720;48.488;9.202;2024-01-07T04:29:00;7.10;62.60
17208;DHT22;8720;48.488;9.202;2024-01-07T04:31:27;7.10;62.60
17208;DHT22;8720;48.488;9.202;2024-01-07T04:33:55;7.10;62.60
17208;DHT22;8720;48.488;9.202;2024-01-07T04:36:23;7.10;62.60
17208;DHT22;8720;48.488;9.202;2024-01-07T04:38:51;7.10;62.80
17208;DHT22;8720;48.488;9.202;2024-01-07T04:41:18;7.00;62.60
17208;DHT22;8720;48.488;9.202;2024-01-07T04:43:45;7.10;62.80
17208;DHT22;8720;48.488;9.202;2024-01-07T04:46:13;7.10;62.80
17208;DHT22;8720;48.488;9.202;2024-01-07T04:48:41;7.00;62.80
17208;DHT22;8720;48.488;9.202;2024-01-07T04:51:08;7.00;62.80
17208;DHT22;8720;48.488;9.202;2024-01-07T04:53:37;7.10;62.80
17208;DHT22;8720;48.488;9.202;2024-01-07T04:56:05;7.10;62.90
17208;DHT22;8720;48.488;9.202;2024-01-07T04:58:33;7.10;62.80
17208;DHT22;8720;48.488;9.202;2024-01-07T05:01:00;7.10;62.60
17208;DHT22;8720;48.488;9.202;2024-01-07T05:03:27;7.00;62.50
17208;DHT22;8720;48.488;9.202;2024-01-07T05:05:57;7.00;62.50
17208;DHT22;8720;48.488;9.202;2024-01-07T05:08:26;7.00;62.50
17208;DHT22;8720;48.488;9.202;2024-01-07T05:10:55;6.90;62.50
17208;DHT22;8720;48.488;9.202;2024-01-07T05:13:22;6.90;62.60
17208;DHT22;8720;48.488;9.202;2024-01-07T05:15:49;6.90;62.50
17208;DHT22;8720;48.488;9.202;2024-01-07T05:18:20;6.90;62.50
17208;DHT22;8720;48.488;9.202;2024-01-07T05:20:47;6.80;62.50
17208;DHT22;8720;48.488;9.202;2024-01-07T05:23:15;6.80;62.40
17208;DHT22;8720;48.488;9.202;2024-01-07T05:25:43;6.80;62.40
17208;DHT22;8720;48.488;9.202;2024-01-07T05:28:12;6.80;62.40
17208;DHT22;8720;48.488;9.202;2024-01-07T05:30:41;6.80;62.50
17208;DHT22;8720;48.488;9.202;2024-01-07T05:33:10;6.70;62.40
17208;DHT22;8720;48.488;9.202;2024-01-07T05:35:38;6.70;62.40
17208;DHT22;8720;48.488;9.202;2024-01-07T05:38:05;6.70;62.50
17208;DHT22;8720;48.488;9.202;2024-01-07T05:40:32;6.70;62.60
17208;DHT22;8720;48.488;9.202;2024-01-07T05:42:59;6.70;62.80
17208;DHT22;8720;48.488;9.202;2024-01-07T05:45:28;6.60;62.70
17208;DHT22;8720;48.488;9.202;2024-01-07T05:47:55;6.60;62.60
17208;DHT22;8720;48.488;9.202;2024-01-07T05:50:23;6.60;62.60
17208;DHT22;8720;48.488;9.202;2024-01-07T05:52:50;6.60;62.60
17208;DHT22;8720;48.488;9.202;2024-01-07T05:55:17;6.60;62.70
17208;DHT22;8720;48.488;9.202;2024-01-07T05:57:45;6.50;62.50
17208;DHT22;8720;48.488;9.202;2024-01-07T06:00:13;6.50;62.60
17208;DHT22;8720;48.488;9.202;2024-01-07T06:02:42;6.50;62.70
17208;DHT22;8720;48.488;9.202;2024-01-07T06:05:09;6.40;62.70
17208;DHT22;8720;48.488;9.202;2024-01-07T06:07:37;6.40;62.80
17208;DHT22;8720;48.488;9.202;2024-01-07T06:10:04;6.40;62.90
17208;DHT22;8720;48.488;9.202;2024-01-07T06:12:32;6.40;62.90
17208;DHT22;8720;48.488;9.202;2024-01-07T06:15:00;6.40;63.00
17208;DHT22;8720;48.488;9.202;2024-01-07T06:17:27;6.30;63.00
17208;DHT22;8720;48.488;9.202;2024-01-07T06:19:56;6.30;63.20
17208;DHT22;8720;48.488;9.202;2024-01-07T06:22:23;6.30;63.30
17208;DHT22;8720;48.488;9.202;2024-01-07T06:24:50;6.30;63.40
17208;DHT22;8720;48.488;9.202;2024-01-07T06:27:18;6.30;63.50
17208;DHT22;8720;48.488;9.202;2024-01-07T06:29:45;6.20;63.50
17208;DHT22;8720;48.488;9.202;2024-01-07T06:32:13;6.30;63.70
17208;DHT22;8720;48.488;9.202;2024-01-07T06:34:40;6.30;64.00
17208;DHT22;8720;48.488;9.202;2024-01-07T06:37:09;6.20;64.00
17208;DHT22;8720;48.488;9.202;2024-01-07T06:39:36;6.20;64.20
17208;DHT22;8720;48.488;9.202;2024-01-07T06:42:04;6.20;64.30
17208;DHT22;8720;48.488;9.202;2024-01-07T06:44:32;6.20;64.40
17208;DHT22;8720;48.488;9.202;2024-01-07T06:46:59;6.20;64.40
17208;DHT22;8720;48.488;9.202;2024-01-07T06:49:26;6.20;64.60
17208;DHT22;8720;48.488;9.202;2024-01-07T06:51:53;6.10;64.70
17208;DHT22;8720;48.488;9.202;2024-01-07T06:54:22;6.10;64.90
17208;DHT22;8720;48.488;9.202;2024-01-07T06:56:49;6.20;65.10
17208;DHT22;8720;48.488;9.202;2024-01-07T06:59:17;6.20;65.20
17208;DHT22;8720;48.488;9.202;2024-01-07T07:01:44;6.10;65.20
17208;DHT22;8720;48.488;9.202;2024-01-07T07:04:12;6.10;65.30
17208;DHT22;8720;48.488;9.202;2024-01-07T07:06:39;6.10;65.50
17208;DHT22;8720;48.488;9.202;2024-01-07T07:09:06;6.10;65.50
17208;DHT22;8720;48.488;9.202;2024-01-07T07:11:35;6.10;65.70
17208;DHT22;8720;48.488;9.202;2024-01-07T07:14:02;6.10;65.80
17208;DHT22;8720;48.488;9.202;2024-01-07T07:16:29;6.10;65.90
17208;DHT22;8720;48.488;9.202;2024-01-07T07:18:57;6.10;65.90
17208;DHT22;8720;48.488;9.202;2024-01-07T07:21:24;6.10;66.00
17208;DHT22;8720;48.488;9.202;2024-01-07T07:23:53;6.10;66.10
17208;DHT22;8720;48.488;9.202;2024-01-07T07:26:20;6.10;66.10
17208;DHT22;8720;48.488;9.202;2024-01-07T07:28:49;6.00;66.10
17208;DHT22;8720;48.488;9.202;2024-01-07T07:31:16;6.00;66.20
17208;DHT22;8720;48.488;9.202;2024-01-07T07:33:43;6.00;66.40
17208;DHT22;8720;48.488;9.202;2024-01-07T07:36:11;6.00;66.60
17208;DHT22;8720;48.488;9.202;2024-01-07T07:38:38;6.00;66.70
17208;DHT22;8720;48.488;9.202;2024-01-07T07:41:05;6.00;66.90
17208;DHT22;8720;48.488;9.202;2024-01-07T07:43:33;6.00;67.00
17208;DHT22;8720;48.488;9.202;2024-01-07T07:46:02;6.10;67.10
17208;DHT22;8720;48.488;9.202;2024-01-07T07:48:29;6.10;67.10
17208;DHT22;8720;48.488;9.202;2024-01-07T07:50:56;6.10;67.30
17208;DHT22;8720;48.488;9.202;2024-01-07T07:53:23;6.10;67.50
17208;DHT22;8720;48.488;9.202;2024-01-07T07:55:50;6.10;67.70
17208;DHT22;8720;48.488;9.202;2024-01-07T07:58:17;6.10;67.70
17208;DHT22;8720;48.488;9.202;2024-01-07T08:00:45;6.20;67.80
17208;DHT22;8720;48.488;9.202;2024-01-07T08:03:14;6.20;67.60
17208;DHT22;8720;48.488;9.202;2024-01-07T08:05:42;6.20;67.50
17208;DHT22;8720;48.488;9.202;2024-01-07T08:08:08;6.20;67.60
17208;DHT22;8720;48.488;9.202;2024-01-07T08:10:35;6.20;67.60
17208;DHT22;8720;48.488;9.202;2024-01-07T08:13:03;6.20;67.50
17208;DHT22;8720;48.488;9.202;2024-01-07T08:15:32;6.20;67.40
17208;DHT22;8720;48.488;9.202;2024-01-07T08:17:59;6.30;67.50
17208;DHT22;8720;48.488;9.202;2024-01-07T08:20:30;6.20;67.50
17208;DHT22;8720;48.488;9.202;2024-01-07T08:22:58;6.30;67.40
17208;DHT22;8720;48.488;9.202;2024-01-07T08:25:25;6.30;67.60
17208;DHT22;8720;48.488;9.202;2024-01-07T08:27:53;6.30;67.80
17208;DHT22;8720;48.488;9.202;2024-01-07T08:30:20;6.30;68.00
17208;DHT22;8720;48.488;9.202;2024-01-07T08:32:49;6.30;68.20
17208;DHT22;8720;48.488;9.202;2024-01-07T08:35:16;6.30;68.10
17208;DHT22;8720;48.488;9.202;2024-01-07T08:37:45;6.30;67.80
17208;DHT22;8720;48.488;9.202;2024-01-07T08:40:12;6.30;67.50
17208;DHT22;8720;48.488;9.202;2024-01-07T08:42:40;6.30;67.60
17208;DHT22;8720;48.488;9.202;2024-01-07T08:45:08;6.30;67.70
17208;DHT22;8720;48.488;9.202;2024-01-07T08:47:37;6.30;67.60
17208;DHT22;8720;48.488;9.202;2024-01-07T08:50:05;6.20;67.50
17208;DHT22;8720;48.488;9.202;2024-01-07T08:52:33;6.20;67.60
17208;DHT22;8720;48.488;9.202;2024-01-07T08:55:03;6.20;67.50
17208;DHT22;8720;48.488;9.202;2024-01-07T08:57:32;6.20;67.30
17208;DHT22;8720;48.488;9.202;2024-01-07T08:59:59;6.20;67.40
17208;DHT22;8720;48.488;9.202;2024-01-07T09:02:27;6.10;67.10
17208;DHT22;8720;48.488;9.202;2024-01-07T09:04:54;6.10;67.40
17208;DHT22;8720;48.488;9.202;2024-01-07T09:07:23;6.10;66.30
17208;DHT22;8720;48.488;9.202;2024-01-07T09:09:50;6.10;66.30
17208;DHT22;8720;48.488;9.202;2024-01-07T09:12:22;6.00;66.20
17208;DHT22;8720;48.488;9.202;2024-01-07T09:14:49;6.00;65.80
17208;DHT22;8720;48.488;9.202;2024-01-07T09:17:17;6.00;66.10
17208;DHT22;8720;48.488;9.202;2024-01-07T09:19:44;6.00;66.20
17208;DHT22;8720;48.488;9.202;2024-01-07T09:22:11;6.00;66.10
17208;DHT22;8720;48.488;9.202;2024-01-07T09:24:39;6.00;65.90
17208;DHT22;8720;48.488;9.202;2024-01-07T09:27:06;6.00;65.70
17208;DHT22;8720;48.488;9.202;2024-01-07T09:29:35;6.00;65.80
17208;DHT22;8720;48.488;9.202;2024-01-07T09:32:03;5.90;65.70
17208;DHT22;8720;48.488;9.202;2024-01-07T09:34:31;5.90;65.90
17208;DHT22;8720;48.488;9.202;2024-01-07T09:36:58;5.90;66.00
17208;DHT22;8720;48.488;9.202;2024-01-07T09:39:25;5.90;66.00
17208;DHT22;8720;48.488;9.202;2024-01-07T09:41:54;6.00;65.70
17208;DHT22;8720;48.488;9.202;2024-01-07T09:44:22;5.90;65.40
17208;DHT22;8720;48.488;9.202;2024-01-07T09:46:51;5.90;65.40
17208;DHT22;8720;48.488;9.202;2024-01-07T09:49:21;5.90;65.10
17208;DHT22;8720;48.488;9.202;2024-01-07T09:51:49;5.90;65.30
17208;DHT22;8720;48.488;9.202;2024-01-07T09:54:21;5.90;65.00
17208;DHT22;8720;48.488;9.202;2024-01-07T09:56:53;5.90;64.90
17208;DHT22;8720;48.488;9.202;2024-01-07T09:59:28;5.90;64.80
17208;DHT22;8720;48.488;9.202;2024-01-07T10:01:57;5.90;64.80
17208;DHT22;8720;48.488;9.202;2024-01-07T10:04:26;5.90;64.60
17208;DHT22;8720;48.488;9.202;2024-01-07T10:06:54;5.90;64.50
17208;DHT22;8720;48.488;9.202;2024-01-07T10:09:22;5.90;64.40
17208;DHT22;8720;48.488;9.202;2024-01-07T10:11:51;5.90;64.10
17208;DHT22;8720;48.488;9.202;2024-01-07T10:14:19;5.90;64.10
17208;DHT22;8720;48.488;9.202;2024-01-07T10:16:48;5.90;64.20
17208;DHT22;8720;48.488;9.202;2024-01-07T10:19:20;5.90;64.60
17208;DHT22;8720;48.488;9.202;2024-01-07T10:21:59;5.90;63.60
17208;DHT22;8720;48.488;9.202;2024-01-07T10:24:35;5.90;63.80
17208;DHT22;8720;48.488;9.202;2024-01-07T10:27:05;5.90;63.40
17208;DHT22;8720;48.488;9.202;2024-01-07T10:29:34;5.90;63.70
17208;DHT22;8720;48.488;9.202;2024-01-07T10:32:02;5.90;63.50
17208;DHT22;8720;48.488;9.202;2024-01-07T10:34:33;5.90;63.70
17208;DHT22;8720;48.488;9.202;2024-01-07T10:37:02;5.90;63.70
17208;DHT22;8720;48.488;9.202;2024-01-07T10:39:31;5.90;63.80
17208;DHT22;8720;48.488;9.202;2024-01-07T10:41:59;5.90;63.80
17208;DHT22;8720;48.488;9.202;2024-01-07T10:44:30;5.90;63.50
17208;DHT22;8720;48.488;9.202;2024-01-07T10:46:58;5.90;63.40
17208;DHT22;8720;48.488;9.202;2024-01-07T10:49:27;6.00;63.10
17208;DHT22;8720;48.488;9.202;2024-01-07T10:52:04;5.90;62.50
17208;DHT22;8720;48.488;9.202;2024-01-07T10:54:33;5.90;61.80
17208;DHT22;8720;48.488;9.202;2024-01-07T10:57:07;5.90;62.60
17208;DHT22;8720;48.488;9.202;2024-01-07T10:59:41;5.80;62.00
17208;DHT22;8720;48.488;9.202;2024-01-07T11:02:11;5.80;62.70
17208;DHT22;8720;48.488;9.202;2024-01-07T11:04:45;5.80;62.60
17208;DHT22;8720;48.488;9.202;2024-01-07T11:07:28;5.80;61.80
17208;DHT22;8720;48.488;9.202;2024-01-07T11:10:08;5.70;60.90
17208;DHT22;8720;48.488;9.202;2024-01-07T11:12:40;5.70;61.30
17208;DHT22;8720;48.488;9.202;2024-01-07T11:15:08;5.60;61.90
17208;DHT22;8720;48.488;9.202;2024-01-07T11:17:41;5.60;61.90
17208;DHT22;8720;48.488;9.202;2024-01-07T11:20:20;5.60;61.20
17208;DHT22;8720;48.488;9.202;2024-01-07T11:26:04;5.50;59.90
17208;DHT22;8720;48.488;9.202;2024-01-07T11:28:49;5.50;61.60
17208;DHT22;8720;48.488;9.202;2024-01-07T11:31:18;5.40;60.50
17208;DHT22;8720;48.488;9.202;2024-01-07T11:33:48;5.40;61.80
17208;DHT22;8720;48.488;9.202;2024-01-07T11:36:17;5.40;62.00
17208;DHT22;8720;48.488;9.202;2024-01-07T11:38:48;5.40;62.30
17208;DHT22;8720;48.488;9.202;2024-01-07T11:41:17;5.40;61.90
17208;DHT22;8720;48.488;9.202;2024-01-07T11:43:57;5.40;62.30
17208;DHT22;8720;48.488;9.202;2024-01-07T11:46:26;5.30;61.40
17208;DHT22;8720;48.488;9.202;2024-01-07T11:48:55;5.40;62.30
17208;DHT22;8720;48.488;9.202;2024-01-07T11:51:25;5.40;62.00
17208;DHT22;8720;48.488;9.202;2024-01-07T11:53:54;5.30;61.90
17208;DHT22;8720;48.488;9.202;2024-01-07T11:56:22;5.30;61.70
17208;DHT22;8720;48.488;9.202;2024-01-07T11:58:51;5.30;62.10
17208;DHT22;8720;48.488;9.202;2024-01-07T12:01:18;5.30;62.20
17208;DHT22;8720;48.488;9.202;2024-01-07T12:03:46;5.30;62.00
17208;DHT22;8720;48.488;9.202;2024-01-07T12:06:15;5.20;61.80
17208;DHT22;8720;48.488;9.202;2024-01-07T12:08:43;5.20;62.00
17208;DHT22;8720;48.488;9.202;2024-01-07T12:11:14;5.20;62.00
17208;DHT22;8720;48.488;9.202;2024-01-07T12:13:43;5.20;61.70
17208;DHT22;8720;48.488;9.202;2024-01-07T12:16:10;5.20;62.10
17208;DHT22;8720;48.488;9.202;2024-01-07T12:18:39;5.20;61.80
17208;DHT22;8720;48.488;9.202;2024-01-07T12:21:06;5.20;61.50
17208;DHT22;8720;48.488;9.202;2024-01-07T12:23:34;5.20;61.50
17208;DHT22;8720;48.488;9.202;2024-01-07T12:26:07;5.20;61.50
17208;DHT22;8720;48.488;9.202;2024-01-07T12:28:38;5.20;61.10
17208;DHT22;8720;48.488;9.202;2024-01-07T12:31:06;5.20;61.30
17208;DHT22;8720;48.488;9.202;2024-01-07T12:33:37;5.20;61.40
17208;DHT22;8720;48.488;9.202;2024-01-07T12:36:06;5.20;61.10
17208;DHT22;8720;48.488;9.202;2024-01-07T12:38:36;5.20;61.60
17208;DHT22;8720;48.488;9.202;2024-01-07T12:41:05;5.20;61.20
17208;DHT22;8720;48.488;9.202;2024-01-07T12:43:32;5.10;61.10
17208;DHT22;8720;48.488;9.202;2024-01-07T12:46:02;5.20;61.40
17208;DHT22;8720;48.488;9.202;2024-01-07T12:48:31;5.10;60.90
17208;DHT22;8720;48.488;9.202;2024-01-07T12:50:59;5.10;61.40
17208;DHT22;8720;48.488;9.202;2024-01-07T12:53:27;5.10;61.40
17208;DHT22;8720;48.488;9.202;2024-01-07T12:55:56;5.10;61.60
17208;DHT22;8720;48.488;9.202;2024-01-07T12:58:24;5.10;61.50
17208;DHT22;8720;48.488;9.202;2024-01-07T13:00:51;5.10;60.90
17208;DHT22;8720;48.488;9.202;2024-01-07T13:03:20;5.10;60.70
17208;DHT22;8720;48.488;9.202;2024-01-07T13:05:48;5.00;60.60
17208;DHT22;8720;48.488;9.202;2024-01-07T13:08:16;5.00;60.80
17208;DHT22;8720;48.488;9.202;2024-01-07T13:10:44;5.00;60.40
17208;DHT22;8720;48.488;9.202;2024-01-07T13:13:12;5.00;60.70
17208;DHT22;8720;48.488;9.202;2024-01-07T13:15:40;5.00;60.30
17208;DHT22;8720;48.488;9.202;2024-01-07T13:18:08;4.90;60.30
17208;DHT22;8720;48.488;9.202;2024-01-07T13:20:39;4.90;60.60
17208;DHT22;8720;48.488;9.202;2024-01-07T13:23:06;4.80;60.00
17208;DHT22;8720;48.488;9.202;2024-01-07T13:25:33;4.80;60.40
17208;DHT22;8720;48.488;9.202;2024-01-07T13:28:01;4.80;60.60
17208;DHT22;8720;48.488;9.202;2024-01-07T13:30:29;4.80;60.80
17208;DHT22;8720;48.488;9.202;2024-01-07T13:32:56;4.70;60.80
17208;DHT22;8720;48.488;9.202;2024-01-07T13:35:24;4.70;60.70
17208;DHT22;8720;48.488;9.202;2024-01-07T13:37:53;4.70;60.70
17208;DHT22;8720;48.488;9.202;2024-01-07T13:40:21;4.70;60.80
17208;DHT22;8720;48.488;9.202;2024-01-07T13:42:48;4.70;61.20
17208;DHT22;8720;48.488;9.202;2024-01-07T13:45:17;4.70;61.30
17208;DHT22;8720;48.488;9.202;2024-01-07T13:47:46;4.60;61.10
17208;DHT22;8720;48.488;9.202;2024-01-07T13:50:14;4.60;60.90
17208;DHT22;8720;48.488;9.202;2024-01-07T13:52:41;4.60;61.10
17208;DHT22;8720;48.488;9.202;2024-01-07T13:55:11;4.60;61.10
17208;DHT22;8720;48.488;9.202;2024-01-07T13:57:39;4.60;61.00
17208;DHT22;8720;48.488;9.202;2024-01-07T14:00:08;4.60;61.20
17208;DHT22;8720;48.488;9.202;2024-01-07T14:02:37;4.50;61.40
17208;DHT22;8720;48.488;9.202;2024-01-07T14:05:06;4.50;61.60
17208;DHT22;8720;48.488;9.202;2024-01-07T14:07:36;4.50;61.50
17208;DHT22;8720;48.488;9.202;2024-01-07T14:10:04;4.50;61.40
17208;DHT22;8720;48.488;9.202;2024-01-07T14:12:33;4.50;61.30
17208;DHT22;8720;48.488;9.202;2024-01-07T14:15:00;4.40;61.20
17208;DHT22;8720;48.488;9.202;2024-01-07T14:17:28;4.40;61.60
17208;DHT22;8720;48.488;9.202;2024-01-07T14:19:56;4.30;61.60
17208;DHT22;8720;48.488;9.202;2024-01-07T14:22:23;4.30;61.60
17208;DHT22;8720;48.488;9.202;2024-01-07T14:24:50;4.30;61.70
17208;DHT22;8720;48.488;9.202;2024-01-07T14:27:18;4.20;62.00
17208;DHT22;8720;48.488;9.202;2024-01-07T14:29:47;4.20;62.40
17208;DHT22;8720;48.488;9.202;2024-01-07T14:32:14;4.20;62.70
17208;DHT22;8720;48.488;9.202;2024-01-07T14:34:42;4.10;62.10
17208;DHT22;8720;48.488;9.202;2024-01-07T14:37:09;4.10;61.80
17208;DHT22;8720;48.488;9.202;2024-01-07T14:39:38;4.10;61.70
17208;DHT22;8720;48.488;9.202;2024-01-07T14:42:05;4.00;61.80
17208;DHT22;8720;48.488;9.202;2024-01-07T14:44:33;3.90;62.00
17208;DHT22;8720;48.488;9.202;2024-01-07T14:47:02;3.90;62.20
17208;DHT22;8720;48.488;9.202;2024-01-07T14:49:30;3.90;62.20
17208;DHT22;8720;48.488;9.202;2024-01-07T14:51:58;3.80;62.50
17208;DHT22;8720;48.488;9.202;2024-01-07T14:54:25;3.80;62.60
17208;DHT22;8720;48.488;9.202;2024-01-07T14:56:52;3.80;62.90
17208;DHT22;8720;48.488;9.202;2024-01-07T14:59:20;3.70;62.80
17208;DHT22;8720;48.488;9.202;2024-01-07T15:01:47;3.70;63.00
17208;DHT22;8720;48.488;9.202;2024-01-07T15:04:16;3.70;63.20
17208;DHT22;8720;48.488;9.202;2024-01-07T15:06:43;3.70;63.00
17208;DHT22;8720;48.488;9.202;2024-01-07T15:09:12;3.70;63.30
17208;DHT22;8720;48.488;9.202;2024-01-07T15:11:40;3.70;63.40
17208;DHT22;8720;48.488;9.202;2024-01-07T15:14:10;3.60;63.40
17208;DHT22;8720;48.488;9.202;2024-01-07T15:16:38;3.60;63.30
17208;DHT22;8720;48.488;9.202;2024-01-07T15:19:05;3.60;63.30
17208;DHT22;8720;48.488;9.202;2024-01-07T15:21:34;3.60;63.40
17208;DHT22;8720;48.488;9.202;2024-01-07T15:24:02;3.60;63.20
17208;DHT22;8720;48.488;9.202;2024-01-07T15:26:30;3.50;63.20
17208;DHT22;8720;48.488;9.202;2024-01-07T15:29:00;3.50;63.00
17208;DHT22;8720;48.488;9.202;2024-01-07T15:31:28;3.50;63.00
17208;DHT22;8720;48.488;9.202;2024-01-07T15:33:55;3.50;63.10
17208;DHT22;8720;48.488;9.202;2024-01-07T15:36:23;3.40;63.20
17208;DHT22;8720;48.488;9.202;2024-01-07T15:38:52;3.40;63.40
17208;DHT22;8720;48.488;9.202;2024-01-07T15:41:20;3.40;63.20
17208;DHT22;8720;48.488;9.202;2024-01-07T15:43:48;3.30;63.20
17208;DHT22;8720;48.488;9.202;2024-01-07T15:46:16;3.30;63.20
17208;DHT22;8720;48.488;9.202;2024-01-07T15:48:43;3.30;63.40
17208;DHT22;8720;48.488;9.202;2024-01-07T15:51:11;3.20;63.40
17208;DHT22;8720;48.488;9.202;2024-01-07T15:53:39;3.20;63.40
17208;DHT22;8720;48.488;9.202;2024-01-07T15:56:08;3.20;63.50
17208;DHT22;8720;48.488;9.202;2024-01-07T15:58:35;3.20;63.40
17208;DHT22;8720;48.488;9.202;2024-01-07T16:01:03;3.00;65.30
17208;DHT22;8720;48.488;9.202;2024-01-07T16:03:34;3.00;64.10
17208;DHT22;8720;48.488;9.202;2024-01-07T16:06:01;3.00;64.10
17208;DHT22;8720;48.488;9.202;2024-01-07T16:08:29;3.00;64.00
17208;DHT22;8720;48.488;9.202;2024-01-07T16:10:58;3.00;63.90
17208;DHT22;8720;48.488;9.202;2024-01-07T16:13:30;3.00;63.80
17208;DHT22;8720;48.488;9.202;2024-01-07T16:15:58;3.00;63.80